sensor_id;sensor_type;location;lat;lon;timestamp;temperature;humidity
73833;SHT30;62179;48.444;-4.464;2023-06-14T11:37:36;22.72;71.83
73833;SHT30;62179;48.444;-4.464;2023-06-14T11:40:03;22.79;71.37
73833;SHT30;62179;48.444;-4.464;2023-06-14T11:42:31;22.83;71.04
73833;SHT30;62179;48.444;-4.464;2023-06-14T11:44:57;22.90;71.10
73833;SHT30;62179;48.444;-4.464;2023-06-14T11:47:22;22.93;69.98
73833;SHT30;62179;48.444;-4.464;2023-06-14T11:49:48;22.92;69.93
73833;SHT30;62179;48.444;-4.464;2023-06-14T11:52:14;22.92;70.24
73833;SHT30;62179;48.444;-4.464;2023-06-14T11:54:39;23.02;70.90
73833;SHT30;62179;48.444;-4.464;2023-06-14T11:57:06;23.08;70.45
73833;SHT30;62179;48.444;-4.464;2023-06-14T11:59:38;23.11;70.80
73833;SHT30;62179;48.444;-4.464;2023-06-14T12:02:04;23.23;70.72
73833;SHT30;62179;48.444;-4.464;2023-06-14T12:04:29;23.23;69.52
73833;SHT30;62179;48.444;-4.464;2023-06-14T12:06:55;23.21;69.35
73833;SHT30;62179;48.444;-4.464;2023-06-14T12:09:23;23.23;69.51
73833;SHT30;62179;48.444;-4.464;2023-06-14T12:11:51;23.27;70.38
73833;SHT30;62179;48.444;-4.464;2023-06-14T12:14:33;23.33;70.32
73833;SHT30;62179;48.444;-4.464;2023-06-14T12:17:06;23.35;69.61
73833;SHT30;62179;48.444;-4.464;2023-06-14T12:19:32;23.34;69.49
73833;SHT30;62179;48.444;-4.464;2023-06-14T12:21:59;23.33;69.30
73833;SHT30;62179;48.444;-4.464;2023-06-14T12:24:29;23.24;69.19
73833;SHT30;62179;48.444;-4.464;2023-06-14T12:26:57;23.25;69.54
73833;SHT30;62179;48.444;-4.464;2023-06-14T12:29:25;23.21;69.57
73833;SHT30;62179;48.444;-4.464;2023-06-14T12:31:50;23.18;69.06
73833;SHT30;62179;48.444;-4.464;2023-06-14T12:34:16;23.16;69.66
73833;SHT30;62179;48.444;-4.464;2023-06-14T12:36:42;23.18;69.81
73833;SHT30;62179;48.444;-4.464;2023-06-14T12:39:10;23.18;69.54
73833;SHT30;62179;48.444;-4.464;2023-06-14T12:41:35;23.21;69.87
73833;SHT30;62179;48.444;-4.464;2023-06-14T12:44:02;23.16;69.32
73833;SHT30;62179;48.444;-4.464;2023-06-14T12:46:30;23.17;69.24
73833;SHT30;62179;48.444;-4.464;2023-06-14T12:48:56;23.18;68.92
73833;SHT30;62179;48.444;-4.464;2023-06-14T12:51:22;23.14;69.53
73833;SHT30;62179;48.444;-4.464;2023-06-14T12:53:47;23.18;69.29
73833;SHT30;62179;48.444;-4.464;2023-06-14T12:56:14;23.20;69.64
73833;SHT30;62179;48.444;-4.464;2023-06-14T12:58:41;23.21;69.98
73833;SHT30;62179;48.444;-4.464;2023-06-14T13:01:09;23.18;69.42
73833;SHT30;62179;48.444;-4.464;2023-06-14T13:03:35;23.16;68.86
73833;SHT30;62179;48.444;-4.464;2023-06-14T13:06:01;23.10;69.41
73833;SHT30;62179;48.444;-4.464;2023-06-14T13:08:27;23.07;69.26
73833;SHT30;62179;48.444;-4.464;2023-06-14T13:10:53;23.06;68.71
73833;SHT30;62179;48.444;-4.464;2023-06-14T13:13:19;23.08;69.25
73833;SHT30;62179;48.444;-4.464;2023-06-14T13:15:44;23.03;68.81
73833;SHT30;62179;48.444;-4.464;2023-06-14T13:18:11;22.99;69.00
73833;SHT30;62179;48.444;-4.464;2023-06-14T13:20:38;22.97;69.32
73833;SHT30;62179;48.444;-4.464;2023-06-14T13:23:04;22.99;69.58
73833;SHT30;62179;48.444;-4.464;2023-06-14T13:25:31;22.99;69.78
73833;SHT30;62179;48.444;-4.464;2023-06-14T13:27:58;22.99;70.14
73833;SHT30;62179;48.444;-4.464;2023-06-14T13:30:24;23.00;69.65
73833;SHT30;62179;48.444;-4.464;2023-06-14T17:20:56;22.11;68.42
73833;SHT30;62179;48.444;-4.464;2023-06-14T17:23:21;22.07;68.62
73833;SHT30;62179;48.444;-4.464;2023-06-14T17:25:47;22.09;68.64
73833;SHT30;62179;48.444;-4.464;2023-06-14T17:28:12;22.05;68.42
73833;SHT30;62179;48.444;-4.464;2023-06-14T17:30:37;22.08;68.57
73833;SHT30;62179;48.444;-4.464;2023-06-14T17:33:10;22.08;68.99
73833;SHT30;62179;48.444;-4.464;2023-06-14T17:35:36;22.02;68.66
73833;SHT30;62179;48.444;-4.464;2023-06-14T17:38:02;22.04;69.02
73833;SHT30;62179;48.444;-4.464;2023-06-14T17:40:28;22.04;68.76
73833;SHT30;62179;48.444;-4.464;2023-06-14T17:42:54;22.08;68.55
73833;SHT30;62179;48.444;-4.464;2023-06-14T17:45:20;22.04;68.36
73833;SHT30;62179;48.444;-4.464;2023-06-14T17:47:46;22.01;68.64
73833;SHT30;62179;48.444;-4.464;2023-06-14T17:50:12;22.04;68.69
73833;SHT30;62179;48.444;-4.464;2023-06-14T17:52:39;22.04;68.80
73833;SHT30;62179;48.444;-4.464;2023-06-14T17:55:05;22.04;68.90
73833;SHT30;62179;48.444;-4.464;2023-06-14T17:57:31;22.02;68.95
73833;SHT30;62179;48.444;-4.464;2023-06-14T17:59:57;22.01;68.76
73833;SHT30;62179;48.444;-4.464;2023-06-14T18:02:23;22.02;68.41
73833;SHT30;62179;48.444;-4.464;2023-06-14T18:04:48;21.98;68.53
73833;SHT30;62179;48.444;-4.464;2023-06-14T18:07:14;21.94;68.12
73833;SHT30;62179;48.444;-4.464;2023-06-14T18:09:39;21.93;68.27
73833;SHT30;62179;48.444;-4.464;2023-06-14T18:12:05;21.90;68.71
73833;SHT30;62179;48.444;-4.464;2023-06-14T18:14:32;21.84;68.57
73833;SHT30;62179;48.444;-4.464;2023-06-14T18:17:00;21.83;68.60
73833;SHT30;62179;48.444;-4.464;2023-06-14T18:19:25;21.78;68.46
73833;SHT30;62179;48.444;-4.464;2023-06-14T18:21:55;21.76;68.91
73833;SHT30;62179;48.444;-4.464;2023-06-14T18:24:24;21.73;68.94
73833;SHT30;62179;48.444;-4.464;2023-06-14T18:26:50;21.70;69.34
73833;SHT30;62179;48.444;-4.464;2023-06-14T18:29:15;21.66;69.60
73833;SHT30;62179;48.444;-4.464;2023-06-14T18:31:42;21.66;68.97
73833;SHT30;62179;48.444;-4.464;2023-06-14T18:34:08;21.61;69.33
73833;SHT30;62179;48.444;-4.464;2023-06-14T18:36:36;21.63;69.21
73833;SHT30;62179;48.444;-4.464;2023-06-14T18:39:02;21.59;69.22
73833;SHT30;62179;48.444;-4.464;2023-06-14T18:41:28;21.54;69.29
73833;SHT30;62179;48.444;-4.464;2023-06-14T18:43:54;21.50;69.74
73833;SHT30;62179;48.444;-4.464;2023-06-14T18:46:22;21.49;69.86
73833;SHT30;62179;48.444;-4.464;2023-06-14T18:48:47;21.46;69.27
73833;SHT30;62179;48.444;-4.464;2023-06-14T18:51:13;21.45;69.86
73833;SHT30;62179;48.444;-4.464;2023-06-14T18:53:38;21.43;69.65
73833;SHT30;62179;48.444;-4.464;2023-06-14T18:56:06;21.39;69.51
73833;SHT30;62179;48.444;-4.464;2023-06-14T18:58:31;21.36;69.90
73833;SHT30;62179;48.444;-4.464;2023-06-14T19:00:57;21.35;69.94
73833;SHT30;62179;48.444;-4.464;2023-06-14T19:03:22;21.32;69.97
73833;SHT30;62179;48.444;-4.464;2023-06-14T19:05:48;21.28;69.73
73833;SHT30;62179;48.444;-4.464;2023-06-14T19:08:13;21.26;69.56
73833;SHT30;62179;48.444;-4.464;2023-06-14T19:10:39;21.20;69.72
73833;SHT30;62179;48.444;-4.464;2023-06-14T19:13:04;21.16;70.27
73833;SHT30;62179;48.444;-4.464;2023-06-14T19:15:32;21.11;70.22
73833;SHT30;62179;48.444;-4.464;2023-06-14T19:17:59;21.08;70.55
73833;SHT30;62179;48.444;-4.464;2023-06-14T19:20:26;21.05;70.42
73833;SHT30;62179;48.444;-4.464;2023-06-14T19:22:52;20.99;70.75
73833;SHT30;62179;48.444;-4.464;2023-06-14T19:25:17;20.96;70.84
73833;SHT30;62179;48.444;-4.464;2023-06-14T19:27:45;20.91;71.01
73833;SHT30;62179;48.444;-4.464;2023-06-14T19:30:11;20.84;71.21
73833;SHT30;62179;48.444;-4.464;2023-06-14T19:32:37;20.80;71.49
73833;SHT30;62179;48.444;-4.464;2023-06-14T19:35:04;20.75;71.62
73833;SHT30;62179;48.444;-4.464;2023-06-14T19:37:30;20.68;71.79
73833;SHT30;62179;48.444;-4.464;2023-06-14T19:39:57;20.65;71.91
73833;SHT30;62179;48.444;-4.464;2023-06-14T19:42:22;20.63;72.03
73833;SHT30;62179;48.444;-4.464;2023-06-14T19:44:48;20.58;71.95
73833;SHT30;62179;48.444;-4.464;2023-06-14T19:47:13;20.54;72.13
73833;SHT30;62179;48.444;-4.464;2023-06-14T19:49:38;20.51;72.09
73833;SHT30;62179;48.444;-4.464;2023-06-14T19:52:05;20.45;72.01
73833;SHT30;62179;48.444;-4.464;2023-06-14T19:54:31;20.44;71.93
73833;SHT30;62179;48.444;-4.464;2023-06-14T19:56:56;20.37;72.02
73833;SHT30;62179;48.444;-4.464;2023-06-14T19:59:22;20.32;72.14
73833;SHT30;62179;48.444;-4.464;2023-06-14T20:01:47;20.29;72.13
73833;SHT30;62179;48.444;-4.464;2023-06-14T20:04:13;20.24;72.47
73833;SHT30;62179;48.444;-4.464;2023-06-14T20:06:39;20.17;72.41
73833;SHT30;62179;48.444;-4.464;2023-06-14T20:09:04;20.13;72.48
73833;SHT30;62179;48.444;-4.464;2023-06-14T20:11:37;20.12;72.59
73833;SHT30;62179;48.444;-4.464;2023-06-14T20:14:02;20.08;72.95
73833;SHT30;62179;48.444;-4.464;2023-06-14T20:16:30;20.02;72.84
73833;SHT30;62179;48.444;-4.464;2023-06-14T20:18:56;19.96;72.86
73833;SHT30;62179;48.444;-4.464;2023-06-14T20:21:24;19.94;72.92
73833;SHT30;62179;48.444;-4.464;2023-06-14T20:23:49;19.89;72.95
73833;SHT30;62179;48.444;-4.464;2023-06-14T20:26:15;19.83;73.18
73833;SHT30;62179;48.444;-4.464;2023-06-14T20:28:40;19.79;73.07
73833;SHT30;62179;48.444;-4.464;2023-06-14T20:31:06;19.78;73.23
73833;SHT30;62179;48.444;-4.464;2023-06-14T20:33:37;19.75;73.35
73833;SHT30;62179;48.444;-4.464;2023-06-14T20:36:02;19.72;73.39
73833;SHT30;62179;48.444;-4.464;2023-06-14T20:38:28;19.66;73.37
73833;SHT30;62179;48.444;-4.464;2023-06-14T20:40:53;19.64;73.52
73833;SHT30;62179;48.444;-4.464;2023-06-14T20:43:23;19.58;73.63
73833;SHT30;62179;48.444;-4.464;2023-06-14T20:45:49;19.58;73.81
73833;SHT30;62179;48.444;-4.464;2023-06-14T20:48:15;19.52;73.89
73833;SHT30;62179;48.444;-4.464;2023-06-14T20:50:40;19.48;73.77
73833;SHT30;62179;48.444;-4.464;2023-06-14T20:53:06;19.48;73.90
73833;SHT30;62179;48.444;-4.464;2023-06-14T20:55:31;19.48;73.97
73833;SHT30;62179;48.444;-4.464;2023-06-14T20:57:57;19.43;73.97
73833;SHT30;62179;48.444;-4.464;2023-06-14T21:00:24;19.36;74.04
73833;SHT30;62179;48.444;-4.464;2023-06-14T21:02:50;19.32;74.02
73833;SHT30;62179;48.444;-4.464;2023-06-14T21:05:15;19.27;74.08
73833;SHT30;62179;48.444;-4.464;2023-06-14T21:07:40;19.27;74.26
73833;SHT30;62179;48.444;-4.464;2023-06-14T21:10:07;19.23;74.38
73833;SHT30;62179;48.444;-4.464;2023-06-14T21:12:33;19.21;74.60
73833;SHT30;62179;48.444;-4.464;2023-06-14T21:14:59;19.15;74.48
73833;SHT30;62179;48.444;-4.464;2023-06-14T21:17:26;19.13;74.48
73833;SHT30;62179;48.444;-4.464;2023-06-14T21:19:51;19.07;74.49
73833;SHT30;62179;48.444;-4.464;2023-06-14T21:22:17;19.06;74.66
73833;SHT30;62179;48.444;-4.464;2023-06-14T21:24:42;19.06;74.80
73833;SHT30;62179;48.444;-4.464;2023-06-14T21:27:08;19.03;74.79
73833;SHT30;62179;48.444;-4.464;2023-06-14T21:29:33;19.00;75.53
73833;SHT30;62179;48.444;-4.464;2023-06-14T21:31:59;18.92;74.89
73833;SHT30;62179;48.444;-4.464;2023-06-14T21:34:25;18.87;74.85
73833;SHT30;62179;48.444;-4.464;2023-06-14T21:36:50;18.86;74.85
73833;SHT30;62179;48.444;-4.464;2023-06-14T21:39:18;18.86;74.83
73833;SHT30;62179;48.444;-4.464;2023-06-14T21:41:43;18.82;74.87
73833;SHT30;62179;48.444;-4.464;2023-06-14T21:44:09;18.82;74.84
73833;SHT30;62179;48.444;-4.464;2023-06-14T21:46:34;18.77;74.95
73833;SHT30;62179;48.444;-4.464;2023-06-14T21:49:00;18.75;74.98
73833;SHT30;62179;48.444;-4.464;2023-06-14T21:51:26;18.70;75.05
73833;SHT30;62179;48.444;-4.464;2023-06-14T21:53:51;18.70;75.01
73833;SHT30;62179;48.444;-4.464;2023-06-14T21:56:19;18.72;75.03
73833;SHT30;62179;48.444;-4.464;2023-06-14T21:58:44;18.70;74.87
